createdAt,value
2018-09-16T00:00:22.220Z,8.73
2018-09-16T00:02:50.079Z,8.30
2018-09-16T00:05:18.593Z,7.77
2018-09-16T00:07:48.825Z,9.97
2018-09-16T00:10:16.685Z,9.40
2018-09-16T00:12:44.556Z,8.90
2018-09-16T00:15:12.418Z,9.40
2018-09-16T00:17:40.268Z,10.70
2018-09-16T00:20:08.979Z,10.63
2018-09-16T00:22:36.817Z,10.97
2018-09-16T00:25:06.963Z,11.47
2018-09-16T00:27:35.052Z,11.53
2018-09-16T00:30:03.386Z,12.13
2018-09-16T00:32:36.799Z,13.10
2018-09-16T00:35:04.687Z,10.67
2018-09-16T00:37:32.495Z,9.03
2018-09-16T00:40:00.317Z,9.87
2018-09-16T00:42:28.221Z,7.20
2018-09-16T00:44:56.089Z,8.10
2018-09-16T00:47:23.917Z,8.70
2018-09-16T00:49:51.876Z,9.60
2018-09-16T00:52:19.711Z,8.23
2018-09-16T00:54:47.611Z,9.23
2018-09-16T00:57:15.411Z,8.03
2018-09-16T00:59:43.207Z,7.93
2018-09-16T01:02:11.075Z,10.20
2018-09-16T01:04:38.914Z,9.63
2018-09-16T01:07:06.933Z,9.57
2018-09-16T01:09:34.717Z,11.83
2018-09-16T01:12:02.550Z,11.40
2018-09-16T01:14:30.465Z,11.50
2018-09-16T01:16:58.268Z,13.07
2018-09-16T01:19:27.770Z,12.80
2018-09-16T01:21:55.739Z,13.00
2018-09-16T01:24:23.622Z,12.33
2018-09-16T01:26:51.468Z,10.10
2018-09-16T01:29:19.263Z,10.50
2018-09-16T01:31:47.123Z,11.10
2018-09-16T01:34:15.830Z,8.97
2018-09-16T01:36:43.672Z,8.20
2018-09-16T01:39:11.470Z,8.17
2018-09-16T01:41:39.288Z,8.77
2018-09-16T01:44:07.160Z,8.27
2018-09-16T01:46:37.317Z,7.57
2018-09-16T01:49:05.161Z,7.53
2018-09-16T01:51:32.979Z,7.90
2018-09-16T01:54:01.130Z,8.07
2018-09-16T01:56:28.956Z,7.77
2018-09-16T01:58:56.791Z,12.17
2018-09-16T02:01:26.975Z,13.53
2018-09-16T02:03:54.851Z,10.40
2018-09-16T02:06:23.525Z,8.67
2018-09-16T02:08:51.352Z,7.63
2018-09-16T02:11:19.210Z,7.80
2018-09-16T02:13:47.234Z,8.00
2018-09-16T02:16:15.062Z,10.43
2018-09-16T02:18:43.690Z,8.83
2018-09-16T02:21:11.535Z,8.60
2018-09-16T02:23:39.360Z,10.00
2018-09-16T02:26:07.172Z,9.60
2018-09-16T02:28:34.969Z,12.07
2018-09-16T02:31:02.808Z,11.30
2018-09-16T02:33:30.627Z,9.17
2018-09-16T02:35:59.113Z,11.60
2018-09-16T02:38:27.794Z,11.83
2018-09-16T02:40:55.584Z,12.20
2018-09-16T02:43:23.398Z,12.50
2018-09-16T02:45:51.263Z,13.00
2018-09-16T02:48:19.080Z,11.80
2018-09-16T02:50:46.939Z,13.90
2018-09-16T02:53:14.789Z,12.47
2018-09-16T02:55:42.654Z,12.17
2018-09-16T02:58:11.294Z,13.00
2018-09-16T03:00:39.290Z,13.10
2018-09-16T03:03:07.926Z,13.60
2018-09-16T03:05:41.480Z,11.87
2018-09-16T03:08:09.301Z,13.30
2018-09-16T03:10:37.150Z,12.77
2018-09-16T03:13:04.991Z,12.10
2018-09-16T03:15:32.907Z,13.20
2018-09-16T03:18:00.691Z,13.17
2018-09-16T03:20:28.521Z,13.17
2018-09-16T03:22:56.369Z,15.20
2018-09-16T03:25:24.192Z,11.67
2018-09-16T03:27:52.049Z,13.37
2018-09-16T03:30:19.936Z,12.33
2018-09-16T03:32:47.757Z,11.83
2018-09-16T03:35:15.626Z,11.67
2018-09-16T03:37:43.434Z,11.03
2018-09-16T03:40:11.771Z,11.20
2018-09-16T03:42:39.648Z,11.40
2018-09-16T03:45:08.494Z,9.80
2018-09-16T03:47:36.512Z,8.70
2018-09-16T03:50:04.572Z,8.43
2018-09-16T03:52:32.547Z,7.63
2018-09-16T03:55:00.371Z,10.00
2018-09-16T03:57:28.206Z,7.90
2018-09-16T03:59:56.091Z,9.30
2018-09-16T04:02:23.968Z,8.80
2018-09-16T04:04:51.865Z,11.57
2018-09-16T04:07:19.735Z,13.57
2018-09-16T04:09:47.622Z,15.97
2018-09-16T04:12:15.476Z,14.00
2018-09-16T04:14:43.390Z,14.80
2018-09-16T04:17:11.928Z,13.10
2018-09-16T04:19:39.748Z,11.70
2018-09-16T04:22:07.600Z,11.63
2018-09-16T04:24:35.432Z,12.07
2018-09-16T04:27:03.337Z,10.07
2018-09-16T04:29:31.183Z,9.57
2018-09-16T04:31:59.154Z,8.80
2018-09-16T04:34:26.997Z,11.50
2018-09-16T04:36:54.854Z,9.63
2018-09-16T04:39:22.696Z,11.30
2018-09-16T04:41:50.526Z,9.17
2018-09-16T04:44:18.378Z,11.53
2018-09-16T04:46:46.196Z,9.50
2018-09-16T04:49:14.042Z,9.17
2018-09-16T04:51:41.871Z,8.53
2018-09-16T04:54:10.041Z,12.83
2018-09-16T04:56:37.856Z,7.73
2018-09-16T04:59:05.722Z,10.30
2018-09-16T05:01:33.611Z,7.40
2018-09-16T05:04:02.072Z,10.23
2018-09-16T05:06:29.887Z,7.60
2018-09-16T05:08:57.745Z,9.03
2018-09-16T05:11:25.605Z,10.17
2018-09-16T05:13:53.611Z,11.93
2018-09-16T05:16:21.510Z,10.10
2018-09-16T05:18:49.378Z,10.83
2018-09-16T05:21:17.237Z,10.90
2018-09-16T05:23:45.685Z,10.30
2018-09-16T05:26:14.160Z,14.00
2018-09-16T05:28:41.966Z,10.20
2018-09-16T05:31:09.976Z,9.30
2018-09-16T05:33:37.864Z,12.10
2018-09-16T05:36:05.776Z,10.80
2018-09-16T05:38:33.604Z,10.10
2018-09-16T05:41:01.482Z,10.93
2018-09-16T05:43:29.528Z,12.70
2018-09-16T05:45:57.344Z,9.47
2018-09-16T05:48:25.239Z,10.80
2018-09-16T05:50:53.111Z,11.43
2018-09-16T05:53:21.154Z,10.37
2018-09-16T05:55:48.844Z,9.37
2018-09-16T05:58:16.700Z,12.10
2018-09-16T06:00:44.507Z,9.63
2018-09-16T06:03:12.390Z,9.50
2018-09-16T06:05:40.311Z,9.20
2018-09-16T06:08:08.174Z,10.77
2018-09-16T06:10:36.004Z,10.53
2018-09-16T06:13:04.120Z,11.73
2018-09-16T06:15:32.680Z,12.03
2018-09-16T06:18:00.542Z,11.37
2018-09-16T06:20:28.411Z,13.07
2018-09-16T06:22:56.254Z,10.07
2018-09-16T06:25:24.130Z,11.83
2018-09-16T06:27:51.987Z,12.00
2018-09-16T06:30:19.869Z,13.13
2018-09-16T06:32:47.777Z,12.10
2018-09-16T06:35:15.643Z,11.83
2018-09-16T06:37:43.464Z,12.40
2018-09-16T06:40:11.348Z,12.87
2018-09-16T06:42:39.836Z,12.47
2018-09-16T06:45:07.703Z,11.73
2018-09-16T06:47:35.683Z,11.07
2018-09-16T06:50:03.616Z,10.87
2018-09-16T06:52:31.486Z,9.80
2018-09-16T06:55:00.041Z,10.47
2018-09-16T06:57:29.537Z,9.93
2018-09-16T06:59:57.700Z,9.93
2018-09-16T07:02:25.552Z,9.90
2018-09-16T07:04:53.389Z,11.50
2018-09-16T07:07:21.239Z,9.07
2018-09-16T07:09:49.342Z,8.87
2018-09-16T07:12:17.180Z,10.40
2018-09-16T07:14:45.019Z,10.40
2018-09-16T07:17:12.864Z,10.90
2018-09-16T07:19:40.684Z,10.20
2018-09-16T07:22:08.492Z,10.07
2018-09-16T07:24:36.425Z,10.30
2018-09-16T07:27:04.276Z,10.50
2018-09-16T07:29:32.120Z,11.87
2018-09-16T07:32:00.587Z,11.80
2018-09-16T07:34:28.743Z,13.00
2018-09-16T07:36:56.648Z,13.40
2018-09-16T07:39:24.550Z,12.67
2018-09-16T07:41:52.422Z,12.47
2018-09-16T07:44:20.965Z,12.53
2018-09-16T07:46:48.787Z,12.50
2018-09-16T07:49:16.633Z,11.40
2018-09-16T07:51:44.489Z,11.80
2018-09-16T07:54:12.585Z,11.60
2018-09-16T07:56:40.412Z,10.43
2018-09-16T07:59:08.233Z,9.30
2018-09-16T08:01:36.068Z,9.80
2018-09-16T08:04:03.923Z,9.00
2018-09-16T08:06:31.792Z,9.83
2018-09-16T08:08:59.691Z,8.77
2018-09-16T08:11:27.563Z,10.47
2018-09-16T08:13:55.520Z,9.40
2018-09-16T08:16:23.715Z,10.17
2018-09-16T08:18:51.564Z,9.70
2018-09-16T08:21:19.409Z,9.87
2018-09-16T08:23:47.970Z,9.93
2018-09-16T08:26:15.755Z,10.20
2018-09-16T08:28:43.597Z,10.70
2018-09-16T08:31:11.491Z,10.20
2018-09-16T08:33:39.901Z,10.73
2018-09-16T08:36:07.741Z,11.13
2018-09-16T08:38:35.744Z,11.03
2018-09-16T08:41:03.638Z,9.67
2018-09-16T08:43:31.470Z,11.07
2018-09-16T08:45:59.329Z,11.00
2018-09-16T08:48:27.191Z,10.23
2018-09-16T08:50:55.014Z,10.90
2018-09-16T08:53:22.828Z,10.43
2018-09-16T08:55:50.654Z,11.37
2018-09-16T08:58:18.588Z,8.83
2018-09-16T09:00:46.420Z,9.47
2018-09-16T09:03:14.315Z,10.20
2018-09-16T09:05:42.159Z,10.03
2018-09-16T09:08:10.017Z,9.43
2018-09-16T09:10:37.893Z,10.57
2018-09-16T09:13:05.769Z,10.20
2018-09-16T09:15:34.250Z,10.60
2018-09-16T09:18:02.122Z,8.90
2018-09-16T09:20:30.300Z,8.17
2018-09-16T09:22:58.147Z,8.47
2018-09-16T09:25:25.994Z,9.50
2018-09-16T09:27:53.882Z,7.60
2018-09-16T09:30:21.720Z,7.73
2018-09-16T09:32:49.559Z,9.20
2018-09-16T09:35:17.417Z,8.40
2018-09-16T09:37:45.575Z,9.37
2018-09-16T09:40:13.465Z,9.07
2018-09-16T09:42:41.307Z,9.33
2018-09-16T09:45:09.154Z,9.53
2018-09-16T09:47:37.249Z,9.33
2018-09-16T09:50:05.119Z,11.37
2018-09-16T09:52:32.965Z,10.80
2018-09-16T09:55:01.724Z,10.00
2018-09-16T09:57:29.844Z,10.40
2018-09-16T09:59:57.673Z,10.33
2018-09-16T10:02:25.529Z,10.23
2018-09-16T10:04:53.762Z,10.63
2018-09-16T10:07:24.610Z,9.90
2018-09-16T10:09:52.759Z,8.50
2018-09-16T10:12:20.624Z,10.20
2018-09-16T10:14:48.890Z,9.43
2018-09-16T10:17:16.916Z,9.97
2018-09-16T10:19:44.748Z,11.30
2018-09-16T10:22:12.629Z,9.80
2018-09-16T10:24:40.491Z,9.73
2018-09-16T10:27:08.352Z,9.60
2018-09-16T10:29:36.194Z,9.07
2018-09-16T10:32:04.063Z,9.23
2018-09-16T10:34:32.481Z,11.07
2018-09-16T10:37:00.383Z,10.73
2018-09-16T10:39:28.239Z,10.27
2018-09-16T10:41:56.384Z,10.03
2018-09-16T10:44:24.215Z,9.37
2018-09-16T10:46:52.507Z,9.23
2018-09-16T10:49:20.333Z,10.40
2018-09-16T10:51:49.156Z,9.87
2018-09-16T10:54:16.993Z,9.80
2018-09-16T10:56:45.151Z,9.83
2018-09-16T10:59:12.984Z,9.70
2018-09-16T11:01:41.339Z,9.67
2018-09-16T11:04:09.844Z,8.67
2018-09-16T11:06:44.535Z,9.40
2018-09-16T11:09:12.621Z,8.83
2018-09-16T11:11:41.276Z,8.70
2018-09-16T11:14:09.109Z,10.97
2018-09-16T11:16:37.360Z,9.53
2018-09-16T11:19:05.225Z,9.23
2018-09-16T11:21:33.404Z,9.40
2018-09-16T11:24:01.321Z,8.93
2018-09-16T11:26:29.221Z,9.47
2018-09-16T11:28:57.191Z,9.13
2018-09-16T11:31:25.029Z,8.60
2018-09-16T11:33:52.921Z,8.70
2018-09-16T11:36:20.767Z,9.47
2018-09-16T11:38:48.618Z,9.57
2018-09-16T11:41:16.439Z,8.90
2018-09-16T11:43:44.263Z,9.20
2018-09-16T11:46:12.112Z,8.90
2018-09-16T11:48:40.004Z,9.37
2018-09-16T11:51:08.193Z,9.90
2018-09-16T11:53:36.034Z,8.63
2018-09-16T11:56:03.885Z,8.20
2018-09-16T11:58:31.712Z,8.07
2018-09-16T12:00:59.893Z,8.27
2018-09-16T12:03:27.780Z,8.93
2018-09-16T12:05:55.596Z,8.47
2018-09-16T12:08:23.474Z,8.70
2018-09-16T12:10:51.323Z,8.67
2018-09-16T12:13:19.524Z,8.73
2018-09-16T12:15:47.477Z,8.53
2018-09-16T12:18:15.364Z,8.50
2018-09-16T12:20:43.205Z,8.77
2018-09-16T12:23:11.090Z,7.37
2018-09-16T12:25:39.192Z,8.30
2018-09-16T12:28:07.089Z,8.60
2018-09-16T12:30:34.937Z,8.27
2018-09-16T12:33:03.260Z,8.97
2018-09-16T12:35:31.198Z,8.37
2018-09-16T12:37:59.036Z,7.80
2018-09-16T12:40:26.886Z,6.87
2018-09-16T12:42:54.700Z,7.10
2018-09-16T12:45:22.662Z,7.23
2018-09-16T12:47:50.465Z,7.90
2018-09-16T12:50:18.655Z,7.70
2018-09-16T12:52:46.483Z,7.50
2018-09-16T12:55:14.704Z,8.43
2018-09-16T12:57:42.583Z,7.10
2018-09-16T13:00:10.530Z,8.73
2018-09-16T13:02:38.396Z,8.90
2018-09-16T13:05:06.531Z,7.63
2018-09-16T13:07:34.374Z,8.40
2018-09-16T13:10:02.219Z,9.33
2018-09-16T13:12:30.091Z,9.43
2018-09-16T13:14:58.014Z,8.03
2018-09-16T13:17:25.873Z,8.60
2018-09-16T13:19:54.203Z,8.93
2018-09-16T13:22:22.117Z,7.53
2018-09-16T13:24:50.738Z,8.90
2018-09-16T13:27:18.590Z,8.23
2018-09-16T13:29:46.445Z,7.90
2018-09-16T13:32:14.300Z,8.63
2018-09-16T13:34:42.247Z,7.80
2018-09-16T13:37:10.386Z,9.20
2018-09-16T13:39:38.230Z,9.80
2018-09-16T13:42:06.147Z,8.30
2018-09-16T13:44:34.022Z,9.27
2018-09-16T13:47:01.849Z,9.50
2018-09-16T13:49:29.683Z,9.97
2018-09-16T13:51:57.517Z,9.23
2018-09-16T13:54:25.460Z,9.17
2018-09-16T13:56:53.319Z,8.83
2018-09-16T13:59:21.156Z,9.63
2018-09-16T14:01:49.368Z,8.90
2018-09-16T14:04:17.225Z,8.47
2018-09-16T14:06:45.097Z,7.90
2018-09-16T14:09:13.560Z,8.10
2018-09-16T14:11:42.046Z,9.17
2018-09-16T14:14:10.438Z,8.00
2018-09-16T14:16:38.593Z,7.97
2018-09-16T14:19:06.672Z,7.77
2018-09-16T14:21:34.566Z,7.30
2018-09-16T14:24:02.425Z,8.13
2018-09-16T14:26:30.288Z,7.07
2018-09-16T14:28:58.171Z,7.13
2018-09-16T14:31:26.250Z,7.10
2018-09-16T14:33:54.125Z,6.00
2018-09-16T14:36:22.280Z,6.67
2018-09-16T14:38:50.153Z,7.80
2018-09-16T14:41:18.668Z,7.23
2018-09-16T14:43:46.901Z,7.20
2018-09-16T14:46:15.052Z,7.13
2018-09-16T14:48:42.942Z,6.70
2018-09-16T14:51:10.773Z,7.30
2018-09-16T14:53:38.598Z,6.40
2018-09-16T14:56:06.432Z,5.20
2018-09-16T14:58:34.299Z,5.50
2018-09-16T15:01:02.168Z,6.20
2018-09-16T15:03:30.000Z,22.40
2018-09-16T15:05:57.905Z,5.60
2018-09-16T15:08:25.773Z,6.70
2018-09-16T15:10:53.655Z,5.50
2018-09-16T15:13:21.629Z,5.67
2018-09-16T15:15:49.399Z,5.70
2018-09-16T15:18:17.248Z,6.60
2018-09-16T15:20:45.109Z,6.30
2018-09-16T15:23:12.988Z,6.30
2018-09-16T15:25:41.647Z,6.73
2018-09-16T15:28:09.835Z,5.57
2018-09-16T15:30:38.235Z,6.50
2018-09-16T15:33:06.437Z,6.87
2018-09-16T15:35:34.330Z,6.70
2018-09-16T15:38:02.408Z,6.40
2018-09-16T15:40:30.268Z,6.07
2018-09-16T15:42:58.109Z,6.00
2018-09-16T15:45:25.980Z,7.10
2018-09-16T15:47:53.820Z,5.97
2018-09-16T15:50:21.712Z,6.20
2018-09-16T15:52:49.557Z,6.77
2018-09-16T15:55:17.469Z,6.30
2018-09-16T15:57:45.312Z,6.60
2018-09-16T16:00:13.211Z,6.67
2018-09-16T16:02:41.080Z,6.10
2018-09-16T16:05:08.925Z,5.77
2018-09-16T16:07:36.782Z,5.70
2018-09-16T16:10:04.651Z,6.80
2018-09-16T16:12:32.752Z,6.80
2018-09-16T16:15:00.721Z,7.00
2018-09-16T16:17:28.847Z,6.43
2018-09-16T16:19:56.697Z,6.50
2018-09-16T16:22:24.630Z,6.80
2018-09-16T16:24:52.465Z,8.50
2018-09-16T16:27:20.332Z,7.00
2018-09-16T16:29:48.204Z,6.77
2018-09-16T16:32:16.099Z,5.93
2018-09-16T16:34:43.943Z,6.43
2018-09-16T16:37:11.771Z,6.80
2018-09-16T16:39:39.629Z,7.30
2018-09-16T16:42:07.479Z,7.33
2018-09-16T16:44:35.331Z,7.57
2018-09-16T16:47:03.241Z,8.20
2018-09-16T16:49:31.381Z,8.00
2018-09-16T16:51:59.306Z,7.33
2018-09-16T16:54:27.218Z,7.30
2018-09-16T16:56:55.280Z,9.10
2018-09-16T16:59:23.116Z,7.90
2018-09-16T17:01:50.979Z,8.73
2018-09-16T17:04:18.940Z,9.17
2018-09-16T17:06:46.826Z,8.00
2018-09-16T17:09:15.012Z,7.90
2018-09-16T17:11:42.856Z,8.07
2018-09-16T17:14:11.275Z,8.20
2018-09-16T17:16:39.129Z,7.60
2018-09-16T17:19:07.855Z,7.13
2018-09-16T17:21:35.770Z,8.73
2018-09-16T17:24:03.633Z,7.67
2018-09-16T17:26:31.533Z,8.47
2018-09-16T17:28:59.447Z,8.47
2018-09-16T17:31:27.844Z,8.50
2018-09-16T17:33:55.731Z,8.80
2018-09-16T17:36:24.277Z,8.67
2018-09-16T17:38:52.205Z,8.77
2018-09-16T17:41:20.072Z,8.20
2018-09-16T17:43:47.927Z,7.77
2018-09-16T17:46:15.770Z,7.60
2018-09-16T17:48:44.016Z,8.50
2018-09-16T17:51:11.903Z,7.97
2018-09-16T17:53:40.155Z,9.77
2018-09-16T17:56:08.851Z,9.93
2018-09-16T17:58:36.693Z,8.23
2018-09-16T18:01:04.734Z,9.27
2018-09-16T18:03:32.893Z,8.07
2018-09-16T18:06:01.000Z,9.80
2018-09-16T18:08:34.459Z,9.90
2018-09-16T18:11:02.667Z,9.17
2018-09-16T18:13:30.526Z,8.60
2018-09-16T18:15:58.781Z,8.83
2018-09-16T18:18:26.616Z,9.70
2018-09-16T18:20:54.791Z,8.80
2018-09-16T18:23:22.679Z,10.80
2018-09-16T18:25:50.507Z,10.00
2018-09-16T18:28:18.361Z,10.60
2018-09-16T18:30:46.233Z,10.10
2018-09-16T18:33:14.078Z,9.80
2018-09-16T18:35:41.952Z,9.57
2018-09-16T18:38:09.800Z,9.80
2018-09-16T18:40:37.731Z,9.73
2018-09-16T18:43:06.040Z,10.10
2018-09-16T18:45:33.908Z,10.07
2018-09-16T18:48:01.796Z,10.47
2018-09-16T18:50:30.305Z,9.00
2018-09-16T18:52:58.147Z,10.30
2018-09-16T18:55:26.294Z,10.20
2018-09-16T18:57:54.220Z,10.30
2018-09-16T19:00:22.096Z,9.80
2018-09-16T19:02:49.992Z,11.20
2018-09-16T19:05:18.156Z,10.73
2018-09-16T19:07:46.065Z,11.00
2018-09-16T19:10:14.332Z,11.63
2018-09-16T19:12:42.525Z,10.40
2018-09-16T19:15:10.445Z,12.33
2018-09-16T19:17:38.347Z,11.00
2018-09-16T19:20:06.625Z,9.77
2018-09-16T19:22:34.506Z,10.50
2018-09-16T19:25:02.391Z,11.73
2018-09-16T19:27:31.009Z,10.20
2018-09-16T19:29:58.900Z,9.80
2018-09-16T19:32:26.793Z,9.30
2018-09-16T19:34:54.981Z,10.00
2018-09-16T19:37:23.867Z,11.23
2018-09-16T19:39:51.782Z,11.50
2018-09-16T19:42:19.920Z,10.43
2018-09-16T19:44:47.791Z,11.37
2018-09-16T19:47:15.641Z,10.37
2018-09-16T19:49:43.486Z,11.90
2018-09-16T19:52:11.391Z,11.77
2018-09-16T19:54:39.227Z,11.90
2018-09-16T19:57:07.129Z,10.70
2018-09-16T19:59:35.007Z,10.80
2018-09-16T20:02:03.412Z,10.90
2018-09-16T20:04:31.356Z,10.27
2018-09-16T20:06:59.231Z,10.10
2018-09-16T20:09:28.390Z,11.83
2018-09-16T20:11:56.292Z,10.97
2018-09-16T20:14:24.121Z,11.77
2018-09-16T20:16:52.825Z,11.33
2018-09-16T20:19:21.036Z,10.13
2018-09-16T20:21:48.891Z,10.93
2018-09-16T20:24:16.737Z,10.80
2018-09-16T20:26:44.635Z,10.57
2018-09-16T20:29:12.516Z,9.10
2018-09-16T20:31:40.356Z,10.17
2018-09-16T20:34:08.455Z,10.53
2018-09-16T20:36:36.271Z,10.73
2018-09-16T20:39:06.772Z,12.20
2018-09-16T20:41:34.591Z,10.83
2018-09-16T20:44:02.503Z,11.73
2018-09-16T20:46:30.355Z,11.07
2018-09-16T20:48:58.193Z,12.10
2018-09-16T20:51:26.036Z,10.10
2018-09-16T20:53:53.903Z,10.90
2018-09-16T20:56:22.065Z,11.67
2018-09-16T20:58:49.892Z,10.03
2018-09-16T21:01:17.802Z,11.37
2018-09-16T21:03:45.933Z,11.43
2018-09-16T21:06:13.869Z,11.93
2018-09-16T21:08:46.743Z,11.00
2018-09-16T21:11:15.647Z,11.87
2018-09-16T21:13:43.507Z,11.30
2018-09-16T21:16:11.336Z,11.73
2018-09-16T21:18:40.143Z,11.00
2018-09-16T21:21:07.988Z,12.83
2018-09-16T21:23:36.508Z,11.43
2018-09-16T21:26:05.057Z,12.20
2018-09-16T21:28:32.921Z,13.00
2018-09-16T21:31:00.756Z,11.23
2018-09-16T21:33:28.611Z,12.77
2018-09-16T21:35:56.499Z,11.93
2018-09-16T21:38:24.369Z,11.83
2018-09-16T21:40:52.452Z,11.20
2018-09-16T21:43:20.297Z,10.63
2018-09-16T21:45:48.151Z,12.23
2018-09-16T21:48:16.104Z,11.43
2018-09-16T21:50:44.237Z,10.87
2018-09-16T21:53:12.056Z,10.40
2018-09-16T21:55:39.888Z,10.70
2018-09-16T21:58:07.741Z,10.40
2018-09-16T22:00:35.583Z,11.30
2018-09-16T22:03:03.542Z,12.07
2018-09-16T22:05:31.401Z,10.63
2018-09-16T22:07:59.289Z,11.17
2018-09-16T22:10:27.181Z,11.57
2018-09-16T22:12:55.040Z,10.27
2018-09-16T22:15:22.910Z,8.97
2018-09-16T22:17:50.781Z,10.47
2018-09-16T22:20:19.238Z,10.87
2018-09-16T22:22:47.118Z,10.80
2018-09-16T22:25:15.018Z,12.00
2018-09-16T22:27:42.859Z,12.57
2018-09-16T22:30:10.742Z,10.80
2018-09-16T22:32:39.354Z,12.97
2018-09-16T22:35:07.320Z,11.50
2018-09-16T22:37:35.775Z,11.50
2018-09-16T22:40:03.641Z,11.73
2018-09-16T22:42:31.544Z,11.20
2018-09-16T22:44:59.367Z,11.57
2018-09-16T22:47:27.260Z,11.80
2018-09-16T22:49:55.068Z,10.20
2018-09-16T22:52:22.905Z,9.03
2018-09-16T22:54:50.779Z,9.80
2018-09-16T22:57:19.256Z,12.90
2018-09-16T22:59:47.150Z,10.50
2018-09-16T23:02:15.028Z,10.27
2018-09-16T23:04:43.013Z,11.30
2018-09-16T23:07:10.829Z,10.13
2018-09-16T23:09:38.652Z,9.80
2018-09-16T23:12:06.463Z,9.57
2018-09-16T23:14:34.340Z,12.27
2018-09-16T23:17:02.207Z,11.70
2018-09-16T23:19:30.018Z,11.40
2018-09-16T23:21:57.815Z,9.97
2018-09-16T23:24:25.638Z,9.00
2018-09-16T23:26:53.456Z,7.50
2018-09-16T23:29:21.334Z,8.10
2018-09-16T23:31:49.211Z,9.40
2018-09-16T23:34:17.012Z,8.83
2018-09-16T23:36:44.860Z,8.30
2018-09-16T23:39:12.680Z,8.63
2018-09-16T23:41:40.561Z,9.70
2018-09-16T23:44:08.435Z,8.80
2018-09-16T23:46:36.328Z,8.97
2018-09-16T23:49:04.173Z,9.83
2018-09-16T23:51:32.029Z,10.23
2018-09-16T23:53:59.845Z,8.93
2018-09-16T23:56:28.035Z,9.23
2018-09-16T23:58:55.902Z,10.10
